sensor_id;sensor_type;location;lat;lon;timestamp;pressure;altitude;pressure_sealevel;temperature;humidity
3206;BME280;1615;53.602;11.418;2023-07-30T00:01:22;100353.56;;;18.17;100.00
3206;BME280;1615;53.602;11.418;2023-07-30T00:03:47;100324.16;;;18.01;100.00
3206;BME280;1615;53.602;11.418;2023-07-30T00:06:12;100349.88;;;18.13;100.00
3206;BME280;1615;53.602;11.418;2023-07-30T00:08:37;100275.88;;;17.74;100.00
3206;BME280;1615;53.602;11.418;2023-07-30T00:11:03;100301.69;;;17.90;100.00
3206;BME280;1615;53.602;11.418;2023-07-30T00:13:28;100338.69;;;18.10;100.00
3206;BME280;1615;53.602;11.418;2023-07-30T00:15:53;100266.78;;;17.62;100.00
3206;BME280;1615;53.602;11.418;2023-07-30T00:18:19;100315.69;;;17.82;100.00
3206;BME280;1615;53.602;11.418;2023-07-30T00:20:44;100321.19;;;17.94;100.00
3206;BME280;1615;53.602;11.418;2023-07-30T00:23:09;100318.06;;;17.95;100.00
3206;BME280;1615;53.602;11.418;2023-07-30T00:25:35;100223.78;;;17.28;100.00
3206;BME280;1615;53.602;11.418;2023-07-30T00:28:00;100387.72;;;18.06;100.00
3206;BME280;1615;53.602;11.418;2023-07-30T00:30:26;100322.13;;;17.86;100.00
3206;BME280;1615;53.602;11.418;2023-07-30T00:32:51;100129.44;;;16.70;100.00
3206;BME280;1615;53.602;11.418;2023-07-30T00:35:16;100358.16;;;17.98;100.00
3206;BME280;1615;53.602;11.418;2023-07-30T00:37:42;100212.63;;;17.13;100.00
3206;BME280;1615;53.602;11.418;2023-07-30T00:40:07;100340.59;;;17.94;100.00
3206;BME280;1615;53.602;11.418;2023-07-30T00:42:33;100322.38;;;17.81;100.00
3206;BME280;1615;53.602;11.418;2023-07-30T00:44:58;100238.34;;;17.25;100.00
3206;BME280;1615;53.602;11.418;2023-07-30T00:47:23;100303.25;;;17.64;100.00
3206;BME280;1615;53.602;11.418;2023-07-30T00:49:49;100352.63;;;17.98;100.00
3206;BME280;1615;53.602;11.418;2023-07-30T00:52:20;100349.28;;;17.92;100.00
3206;BME280;1615;53.602;11.418;2023-07-30T00:54:47;100102.13;;;16.32;100.00
3206;BME280;1615;53.602;11.418;2023-07-30T00:57:14;100345.25;;;17.90;100.00
3206;BME280;1615;53.602;11.418;2023-07-30T00:59:40;100348.94;;;17.94;100.00
3206;BME280;1615;53.602;11.418;2023-07-30T01:02:05;100262.78;;;17.35;100.00
3206;BME280;1615;53.602;11.418;2023-07-30T01:04:31;100350.97;;;17.97;100.00
3206;BME280;1615;53.602;11.418;2023-07-30T01:06:57;100349.59;;;18.03;100.00
3206;BME280;1615;53.602;11.418;2023-07-30T01:09:22;100304.38;;;17.75;100.00
3206;BME280;1615;53.602;11.418;2023-07-30T01:11:48;100352.81;;;18.05;100.00
3206;BME280;1615;53.602;11.418;2023-07-30T01:14:14;100317.69;;;17.97;100.00
3206;BME280;1615;53.602;11.418;2023-07-30T01:16:41;100347.47;;;18.12;100.00
3206;BME280;1615;53.602;11.418;2023-07-30T01:19:07;100340.09;;;18.04;100.00
3206;BME280;1615;53.602;11.418;2023-07-30T01:21:36;100354.63;;;18.13;100.00
3206;BME280;1615;53.602;11.418;2023-07-30T01:24:01;100185.69;;;16.86;100.00
3206;BME280;1615;53.602;11.418;2023-07-30T01:26:37;100316.59;;;17.86;100.00
3206;BME280;1615;53.602;11.418;2023-07-30T01:29:08;100249.81;;;17.51;100.00
3206;BME280;1615;53.602;11.418;2023-07-30T01:31:35;100304.19;;;17.95;100.00
3206;BME280;1615;53.602;11.418;2023-07-30T01:34:02;100323.88;;;17.90;100.00
3206;BME280;1615;53.602;11.418;2023-07-30T01:36:28;100306.41;;;17.90;100.00
3206;BME280;1615;53.602;11.418;2023-07-30T01:38:54;100283.13;;;17.79;100.00
3206;BME280;1615;53.602;11.418;2023-07-30T01:41:19;100314.63;;;18.14;100.00
3206;BME280;1615;53.602;11.418;2023-07-30T01:43:45;100028.47;;;16.40;100.00
3206;BME280;1615;53.602;11.418;2023-07-30T01:46:10;100273.78;;;17.99;100.00
3206;BME280;1615;53.602;11.418;2023-07-30T01:48:35;100293.56;;;18.13;100.00
3206;BME280;1615;53.602;11.418;2023-07-30T01:51:01;100321.28;;;18.25;100.00
3206;BME280;1615;53.602;11.418;2023-07-30T01:53:26;100334.13;;;18.45;100.00
3206;BME280;1615;53.602;11.418;2023-07-30T01:55:51;100338.53;;;18.46;100.00
3206;BME280;1615;53.602;11.418;2023-07-30T01:58:16;100320.31;;;18.33;100.00
3206;BME280;1615;53.602;11.418;2023-07-30T02:00:42;100196.13;;;17.56;100.00
3206;BME280;1615;53.602;11.418;2023-07-30T02:03:07;100342.47;;;18.45;100.00
3206;BME280;1615;53.602;11.418;2023-07-30T02:05:33;100219.59;;;17.74;100.00
3206;BME280;1615;53.602;11.418;2023-07-30T02:07:58;100075.03;;;16.89;100.00
3206;BME280;1615;53.602;11.418;2023-07-30T02:10:25;100332.00;;;18.54;100.00
3206;BME280;1615;53.602;11.418;2023-07-30T02:12:50;100267.00;;;18.12;100.00
3206;BME280;1615;53.602;11.418;2023-07-30T02:15:16;100276.41;;;18.23;100.00
3206;BME280;1615;53.602;11.418;2023-07-30T02:17:41;100278.94;;;18.28;100.00
3206;BME280;1615;53.602;11.418;2023-07-30T02:20:07;100333.81;;;18.62;100.00
3206;BME280;1615;53.602;11.418;2023-07-30T02:22:32;100221.69;;;17.92;100.00
3206;BME280;1615;53.602;11.418;2023-07-30T02:24:58;100261.50;;;18.27;100.00
3206;BME280;1615;53.602;11.418;2023-07-30T02:27:23;100319.66;;;18.67;100.00
3206;BME280;1615;53.602;11.418;2023-07-30T02:29:48;100371.25;;;18.68;100.00
3206;BME280;1615;53.602;11.418;2023-07-30T02:32:14;100332.38;;;18.68;100.00
3206;BME280;1615;53.602;11.418;2023-07-30T02:34:39;100352.25;;;18.70;100.00
3206;BME280;1615;53.602;11.418;2023-07-30T02:37:04;100310.69;;;18.58;100.00
3206;BME280;1615;53.602;11.418;2023-07-30T02:39:30;100329.59;;;18.68;100.00
3206;BME280;1615;53.602;11.418;2023-07-30T02:41:55;100230.13;;;18.11;100.00
3206;BME280;1615;53.602;11.418;2023-07-30T02:44:20;100329.06;;;18.62;100.00
3206;BME280;1615;53.602;11.418;2023-07-30T02:46:45;100078.56;;;17.02;100.00
3206;BME280;1615;53.602;11.418;2023-07-30T02:49:11;100359.38;;;18.83;100.00
3206;BME280;1615;53.602;11.418;2023-07-30T02:51:36;100372.34;;;18.79;100.00
3206;BME280;1615;53.602;11.418;2023-07-30T02:54:04;100332.28;;;18.64;100.00
3206;BME280;1615;53.602;11.418;2023-07-30T02:56:30;100318.38;;;18.49;100.00
3206;BME280;1615;53.602;11.418;2023-07-30T02:58:55;100334.88;;;18.57;100.00
3206;BME280;1615;53.602;11.418;2023-07-30T03:01:20;100352.25;;;18.70;100.00
3206;BME280;1615;53.602;11.418;2023-07-30T03:03:45;100306.91;;;18.35;100.00
3206;BME280;1615;53.602;11.418;2023-07-30T03:06:11;100299.53;;;18.27;100.00
3206;BME280;1615;53.602;11.418;2023-07-30T03:08:36;100269.59;;;18.05;100.00
3206;BME280;1615;53.602;11.418;2023-07-30T03:11:02;100350.34;;;18.58;100.00
3206;BME280;1615;53.602;11.418;2023-07-30T03:13:27;100342.59;;;18.64;100.00
3206;BME280;1615;53.602;11.418;2023-07-30T03:15:53;100407.63;;;18.63;100.00
3206;BME280;1615;53.602;11.418;2023-07-30T03:18:18;100344.00;;;18.58;100.00
3206;BME280;1615;53.602;11.418;2023-07-30T03:20:44;100096.53;;;17.08;100.00
3206;BME280;1615;53.602;11.418;2023-07-30T03:23:09;100336.91;;;18.45;100.00
3206;BME280;1615;53.602;11.418;2023-07-30T03:25:34;100304.72;;;18.28;100.00
3206;BME280;1615;53.602;11.418;2023-07-30T03:27:59;100374.56;;;18.58;100.00
3206;BME280;1615;53.602;11.418;2023-07-30T03:30:25;100257.59;;;18.01;100.00
3206;BME280;1615;53.602;11.418;2023-07-30T03:32:50;100373.38;;;18.59;100.00
3206;BME280;1615;53.602;11.418;2023-07-30T03:35:15;100352.09;;;18.63;100.00
3206;BME280;1615;53.602;11.418;2023-07-30T03:37:40;100342.59;;;18.64;100.00
3206;BME280;1615;53.602;11.418;2023-07-30T03:40:06;100301.38;;;18.35;100.00
3206;BME280;1615;53.602;11.418;2023-07-30T03:42:32;100350.22;;;18.67;100.00
3206;BME280;1615;53.602;11.418;2023-07-30T03:44:57;100344.28;;;18.53;100.00
3206;BME280;1615;53.602;11.418;2023-07-30T03:47:22;100241.91;;;17.93;100.00
3206;BME280;1615;53.602;11.418;2023-07-30T03:49:47;100359.25;;;18.64;100.00
3206;BME280;1615;53.602;11.418;2023-07-30T03:52:13;100330.31;;;18.49;100.00
3206;BME280;1615;53.602;11.418;2023-07-30T03:54:38;100278.09;;;18.12;100.00
3206;BME280;1615;53.602;11.418;2023-07-30T03:57:04;100193.28;;;17.68;100.00
3206;BME280;1615;53.602;11.418;2023-07-30T03:59:29;100347.69;;;18.62;100.00
3206;BME280;1615;53.602;11.418;2023-07-30T04:01:54;100323.56;;;18.35;100.00
3206;BME280;1615;53.602;11.418;2023-07-30T04:04:20;100356.09;;;18.50;100.00
3206;BME280;1615;53.602;11.418;2023-07-30T04:06:45;100204.97;;;17.61;100.00
3206;BME280;1615;53.602;11.418;2023-07-30T04:09:11;100358.59;;;18.55;100.00
3206;BME280;1615;53.602;11.418;2023-07-30T04:11:36;100079.13;;;16.80;100.00
3206;BME280;1615;53.602;11.418;2023-07-30T04:14:01;100355.66;;;18.48;100.00
3206;BME280;1615;53.602;11.418;2023-07-30T04:16:27;100335.78;;;18.46;100.00
3206;BME280;1615;53.602;11.418;2023-07-30T04:18:52;100368.56;;;18.56;100.00
3206;BME280;1615;53.602;11.418;2023-07-30T04:21:17;100370.97;;;18.57;100.00
3206;BME280;1615;53.602;11.418;2023-07-30T04:23:43;100349.19;;;18.44;100.00
3206;BME280;1615;53.602;11.418;2023-07-30T04:26:08;100260.84;;;17.75;100.00
3206;BME280;1615;53.602;11.418;2023-07-30T04:28:33;100316.69;;;18.17;100.00
3206;BME280;1615;53.602;11.418;2023-07-30T04:30:59;100272.63;;;18.00;100.00
3206;BME280;1615;53.602;11.418;2023-07-30T04:33:24;100285.53;;;18.08;100.00
3206;BME280;1615;53.602;11.418;2023-07-30T04:35:51;100219.84;;;17.69;100.00
3206;BME280;1615;53.602;11.418;2023-07-30T04:38:16;100350.75;;;18.57;100.00
3206;BME280;1615;53.602;11.418;2023-07-30T04:40:42;100329.03;;;18.47;100.00
3206;BME280;1615;53.602;11.418;2023-07-30T04:43:07;100353.94;;;18.59;100.00
3206;BME280;1615;53.602;11.418;2023-07-30T04:45:33;100351.19;;;18.59;100.00
3206;BME280;1615;53.602;11.418;2023-07-30T04:47:58;100355.81;;;18.55;100.00
3206;BME280;1615;53.602;11.418;2023-07-30T04:50:23;100381.84;;;18.78;100.00
3206;BME280;1615;53.602;11.418;2023-07-30T04:52:49;100325.19;;;18.36;100.00
3206;BME280;1615;53.602;11.418;2023-07-30T04:55:14;100251.59;;;17.99;100.00
3206;BME280;1615;53.602;11.418;2023-07-30T04:57:39;100328.88;;;18.55;100.00
3206;BME280;1615;53.602;11.418;2023-07-30T05:00:05;100365.63;;;18.80;100.00
3206;BME280;1615;53.602;11.418;2023-07-30T05:02:31;100286.69;;;18.50;100.00
3206;BME280;1615;53.602;11.418;2023-07-30T05:04:56;100360.69;;;19.20;100.00
3206;BME280;1615;53.602;11.418;2023-07-30T05:07:21;100333.06;;;19.11;100.00
3206;BME280;1615;53.602;11.418;2023-07-30T05:09:47;100286.03;;;19.03;100.00
3206;BME280;1615;53.602;11.418;2023-07-30T05:12:12;100353.81;;;19.64;100.00
3206;BME280;1615;53.602;11.418;2023-07-30T05:14:37;100189.31;;;18.74;100.00
3206;BME280;1615;53.602;11.418;2023-07-30T05:17:03;100382.88;;;19.85;100.00
3206;BME280;1615;53.602;11.418;2023-07-30T05:19:28;100297.38;;;19.29;100.00
3206;BME280;1615;53.602;11.418;2023-07-30T05:21:53;100328.25;;;19.58;100.00
3206;BME280;1615;53.602;11.418;2023-07-30T05:24:19;100388.84;;;19.84;100.00
3206;BME280;1615;53.602;11.418;2023-07-30T05:26:44;100390.72;;;19.80;100.00
3206;BME280;1615;53.602;11.418;2023-07-30T05:29:09;100368.75;;;19.75;100.00
3206;BME280;1615;53.602;11.418;2023-07-30T05:31:35;100308.69;;;19.36;100.00
3206;BME280;1615;53.602;11.418;2023-07-30T05:34:00;100267.63;;;19.14;100.00
3206;BME280;1615;53.602;11.418;2023-07-30T05:36:26;100390.31;;;19.97;100.00
3206;BME280;1615;53.602;11.418;2023-07-30T05:38:51;100393.59;;;20.02;100.00
3206;BME280;1615;53.602;11.418;2023-07-30T05:41:16;100352.91;;;19.60;100.00
3206;BME280;1615;53.602;11.418;2023-07-30T05:43:41;100362.63;;;19.85;100.00
3206;BME280;1615;53.602;11.418;2023-07-30T05:46:07;100345.88;;;19.81;100.00
3206;BME280;1615;53.602;11.418;2023-07-30T05:48:33;100391.69;;;20.22;100.00
3206;BME280;1615;53.602;11.418;2023-07-30T05:50:58;100306.53;;;19.83;100.00
3206;BME280;1615;53.602;11.418;2023-07-30T05:53:24;100394.16;;;20.27;100.00
3206;BME280;1615;53.602;11.418;2023-07-30T05:55:49;100267.75;;;19.52;100.00
3206;BME280;1615;53.602;11.418;2023-07-30T05:58:15;100298.78;;;19.92;100.00
3206;BME280;1615;53.602;11.418;2023-07-30T06:00:41;100258.66;;;19.74;100.00
3206;BME280;1615;53.602;11.418;2023-07-30T06:03:06;100386.25;;;20.48;100.00
3206;BME280;1615;53.602;11.418;2023-07-30T06:05:39;100294.38;;;19.91;100.00
3206;BME280;1615;53.602;11.418;2023-07-30T06:08:04;100348.88;;;20.30;100.00
3206;BME280;1615;53.602;11.418;2023-07-30T06:10:29;100365.94;;;20.47;100.00
3206;BME280;1615;53.602;11.418;2023-07-30T06:12:54;100322.84;;;20.41;100.00
3206;BME280;1615;53.602;11.418;2023-07-30T06:15:20;100361.31;;;20.77;100.00
3206;BME280;1615;53.602;11.418;2023-07-30T06:17:45;100392.13;;;21.07;100.00
3206;BME280;1615;53.602;11.418;2023-07-30T06:20:11;100382.28;;;21.13;100.00
3206;BME280;1615;53.602;11.418;2023-07-30T06:22:36;100343.88;;;21.03;100.00
3206;BME280;1615;53.602;11.418;2023-07-30T06:25:01;100376.72;;;21.39;100.00
3206;BME280;1615;53.602;11.418;2023-07-30T06:27:27;100329.38;;;20.94;100.00
3206;BME280;1615;53.602;11.418;2023-07-30T06:29:52;100304.75;;;20.96;100.00
3206;BME280;1615;53.602;11.418;2023-07-30T06:32:17;100380.28;;;21.62;100.00
3206;BME280;1615;53.602;11.418;2023-07-30T06:34:43;100346.88;;;21.43;100.00
3206;BME280;1615;53.602;11.418;2023-07-30T06:37:08;100385.47;;;21.63;100.00
3206;BME280;1615;53.602;11.418;2023-07-30T06:39:33;100373.28;;;21.49;100.00
3206;BME280;1615;53.602;11.418;2023-07-30T06:41:59;100365.53;;;21.65;100.00
3206;BME280;1615;53.602;11.418;2023-07-30T06:44:24;100281.97;;;21.16;100.00
3206;BME280;1615;53.602;11.418;2023-07-30T06:46:50;100322.00;;;21.31;100.00
3206;BME280;1615;53.602;11.418;2023-07-30T06:49:15;100370.28;;;21.61;100.00
3206;BME280;1615;53.602;11.418;2023-07-30T06:51:41;100341.53;;;21.57;100.00
3206;BME280;1615;53.602;11.418;2023-07-30T06:54:06;100319.22;;;21.57;100.00
3206;BME280;1615;53.602;11.418;2023-07-30T06:56:31;100346.66;;;21.81;100.00
3206;BME280;1615;53.602;11.418;2023-07-30T06:58:57;100356.44;;;21.94;100.00
3206;BME280;1615;53.602;11.418;2023-07-30T07:01:22;100298.56;;;21.65;100.00
3206;BME280;1615;53.602;11.418;2023-07-30T07:03:47;100385.56;;;22.26;100.00
3206;BME280;1615;53.602;11.418;2023-07-30T07:06:12;100297.91;;;21.71;100.00
3206;BME280;1615;53.602;11.418;2023-07-30T07:08:38;100371.19;;;22.24;100.00
3206;BME280;1615;53.602;11.418;2023-07-30T07:11:03;100363.44;;;22.43;100.00
3206;BME280;1615;53.602;11.418;2023-07-30T07:13:29;100282.94;;;21.86;100.00
3206;BME280;1615;53.602;11.418;2023-07-30T07:15:54;100303.34;;;22.23;100.00
3206;BME280;1615;53.602;11.418;2023-07-30T07:18:19;100378.78;;;22.60;100.00
3206;BME280;1615;53.602;11.418;2023-07-30T07:20:45;100373.41;;;22.81;100.00
3206;BME280;1615;53.602;11.418;2023-07-30T07:23:10;100403.22;;;23.06;100.00
3206;BME280;1615;53.602;11.418;2023-07-30T07:25:35;100390.84;;;23.04;100.00
3206;BME280;1615;53.602;11.418;2023-07-30T07:28:02;100272.47;;;22.46;100.00
3206;BME280;1615;53.602;11.418;2023-07-30T07:30:27;100391.50;;;23.34;100.00
3206;BME280;1615;53.602;11.418;2023-07-30T07:32:53;100395.56;;;23.43;100.00
3206;BME280;1615;53.602;11.418;2023-07-30T07:35:19;100393.28;;;23.59;100.00
3206;BME280;1615;53.602;11.418;2023-07-30T07:37:45;100396.75;;;23.39;100.00
3206;BME280;1615;53.602;11.418;2023-07-30T07:40:10;100391.56;;;23.41;100.00
3206;BME280;1615;53.602;11.418;2023-07-30T07:42:38;100301.66;;;22.95;100.00
3206;BME280;1615;53.602;11.418;2023-07-30T07:45:04;100385.03;;;23.23;100.00
3206;BME280;1615;53.602;11.418;2023-07-30T07:47:29;100375.53;;;22.91;100.00
3206;BME280;1615;53.602;11.418;2023-07-30T07:49:54;100336.66;;;22.79;100.00
3206;BME280;1615;53.602;11.418;2023-07-30T07:52:20;100381.69;;;23.10;100.00
3206;BME280;1615;53.602;11.418;2023-07-30T07:54:46;100293.94;;;22.42;100.00
3206;BME280;1615;53.602;11.418;2023-07-30T07:57:11;100370.22;;;22.79;100.00
3206;BME280;1615;53.602;11.418;2023-07-30T07:59:36;100384.31;;;22.93;100.00
3206;BME280;1615;53.602;11.418;2023-07-30T08:02:02;100217.69;;;21.98;100.00
3206;BME280;1615;53.602;11.418;2023-07-30T08:04:27;100388.44;;;23.49;100.00
3206;BME280;1615;53.602;11.418;2023-07-30T08:06:52;100396.06;;;23.56;100.00
3206;BME280;1615;53.602;11.418;2023-07-30T08:09:18;100351.75;;;23.14;100.00
3206;BME280;1615;53.602;11.418;2023-07-30T08:11:43;100301.72;;;22.59;100.00
3206;BME280;1615;53.602;11.418;2023-07-30T08:14:08;100373.25;;;23.03;100.00
3206;BME280;1615;53.602;11.418;2023-07-30T08:16:34;100398.59;;;23.21;100.00
3206;BME280;1615;53.602;11.418;2023-07-30T08:18:59;100351.19;;;22.95;100.00
3206;BME280;1615;53.602;11.418;2023-07-30T08:21:24;100396.19;;;23.19;100.00
3206;BME280;1615;53.602;11.418;2023-07-30T08:23:50;100407.50;;;23.33;100.00
3206;BME280;1615;53.602;11.418;2023-07-30T08:26:15;100301.09;;;22.76;100.00
3206;BME280;1615;53.602;11.418;2023-07-30T08:28:40;100200.81;;;22.24;100.00
3206;BME280;1615;53.602;11.418;2023-07-30T08:31:06;100401.25;;;23.54;100.00
3206;BME280;1615;53.602;11.418;2023-07-30T08:33:31;100402.13;;;23.61;100.00
3206;BME280;1615;53.602;11.418;2023-07-30T08:35:58;100312.31;;;23.26;100.00
3206;BME280;1615;53.602;11.418;2023-07-30T08:38:23;100397.38;;;23.69;99.66
3206;BME280;1615;53.602;11.418;2023-07-30T08:40:49;100424.50;;;23.61;95.56
3206;BME280;1615;53.602;11.418;2023-07-30T08:43:17;100362.75;;;23.33;94.81
3206;BME280;1615;53.602;11.418;2023-07-30T08:45:43;100201.38;;;22.43;94.51
3206;BME280;1615;53.602;11.418;2023-07-30T08:48:08;100359.59;;;23.42;94.34
3206;BME280;1615;53.602;11.418;2023-07-30T08:50:34;100301.47;;;23.21;92.52
3206;BME280;1615;53.602;11.418;2023-07-30T08:53:00;100407.06;;;23.85;94.64
3206;BME280;1615;53.602;11.418;2023-07-30T08:55:27;100381.47;;;23.83;92.32
3206;BME280;1615;53.602;11.418;2023-07-30T08:57:55;100369.72;;;23.60;89.42
3206;BME280;1615;53.602;11.418;2023-07-30T09:00:24;100392.63;;;23.76;93.47
3206;BME280;1615;53.602;11.418;2023-07-30T09:02:54;100373.38;;;23.68;90.03
3206;BME280;1615;53.602;11.418;2023-07-30T09:05:20;100393.47;;;23.84;92.44
3206;BME280;1615;53.602;11.418;2023-07-30T09:07:46;100397.53;;;23.90;97.01
3206;BME280;1615;53.602;11.418;2023-07-30T09:10:12;100350.19;;;23.71;93.80
3206;BME280;1615;53.602;11.418;2023-07-30T09:12:38;100306.06;;;23.47;92.95
3206;BME280;1615;53.602;11.418;2023-07-30T09:15:05;100386.22;;;23.76;91.03
3206;BME280;1615;53.602;11.418;2023-07-30T09:17:31;100382.19;;;23.70;94.21
3206;BME280;1615;53.602;11.418;2023-07-30T09:19:59;100398.78;;;23.96;92.72
3206;BME280;1615;53.602;11.418;2023-07-30T09:22:25;100396.00;;;24.06;93.34
3206;BME280;1615;53.602;11.418;2023-07-30T09:24:51;100398.06;;;24.13;90.05
3206;BME280;1615;53.602;11.418;2023-07-30T09:27:20;100396.88;;;24.21;90.57
3206;BME280;1615;53.602;11.418;2023-07-30T09:29:52;100390.97;;;24.43;87.10
3206;BME280;1615;53.602;11.418;2023-07-30T09:32:19;100390.97;;;24.40;79.91
3206;BME280;1615;53.602;11.418;2023-07-30T09:34:45;100389.81;;;24.48;83.55
3206;BME280;1615;53.602;11.418;2023-07-30T09:37:10;100340.47;;;24.26;84.29
3206;BME280;1615;53.602;11.418;2023-07-30T09:39:37;100389.06;;;24.65;85.73
3206;BME280;1615;53.602;11.418;2023-07-30T09:42:03;100397.88;;;24.74;82.52
3206;BME280;1615;53.602;11.418;2023-07-30T09:44:28;100399.13;;;24.90;83.06
3206;BME280;1615;53.602;11.418;2023-07-30T09:46:56;100383.50;;;25.00;83.14
3206;BME280;1615;53.602;11.418;2023-07-30T09:49:21;100317.78;;;24.66;77.16
3206;BME280;1615;53.602;11.418;2023-07-30T09:51:47;100360.28;;;25.20;75.65
3206;BME280;1615;53.602;11.418;2023-07-30T09:54:14;100335.06;;;25.27;77.39
3206;BME280;1615;53.602;11.418;2023-07-30T09:56:40;100400.34;;;25.70;75.83
3206;BME280;1615;53.602;11.418;2023-07-30T09:59:06;100384.38;;;25.42;72.65
3206;BME280;1615;53.602;11.418;2023-07-30T10:01:43;100196.34;;;24.06;68.38
3206;BME280;1615;53.602;11.418;2023-07-30T10:04:10;100400.00;;;25.33;70.90
3206;BME280;1615;53.602;11.418;2023-07-30T10:06:46;100189.53;;;24.07;71.74
3206;BME280;1615;53.602;11.418;2023-07-30T10:09:15;100365.91;;;25.34;72.78
3206;BME280;1615;53.602;11.418;2023-07-30T10:11:43;100389.16;;;25.63;72.42
3206;BME280;1615;53.602;11.418;2023-07-30T10:14:10;100300.16;;;25.18;75.26
3206;BME280;1615;53.602;11.418;2023-07-30T10:16:36;100337.06;;;25.34;68.26
3206;BME280;1615;53.602;11.418;2023-07-30T10:19:01;100387.97;;;25.36;67.00
3206;BME280;1615;53.602;11.418;2023-07-30T10:21:27;100390.75;;;25.57;68.52
3206;BME280;1615;53.602;11.418;2023-07-30T10:24:04;100404.78;;;25.64;69.17
3206;BME280;1615;53.602;11.418;2023-07-30T10:26:34;100358.31;;;25.35;71.28
3206;BME280;1615;53.602;11.418;2023-07-30T10:29:13;100394.75;;;25.66;69.24
3206;BME280;1615;53.602;11.418;2023-07-30T10:31:39;100405.16;;;25.90;69.97
3206;BME280;1615;53.602;11.418;2023-07-30T10:34:09;100399.16;;;25.74;66.48
3206;BME280;1615;53.602;11.418;2023-07-30T10:37:08;100408.38;;;25.75;69.22
3206;BME280;1615;53.602;11.418;2023-07-30T10:39:28;100395.16;;;25.72;68.94
3206;BME280;1615;53.602;11.418;2023-07-30T10:41:57;100409.16;;;25.86;69.88
3206;BME280;1615;53.602;11.418;2023-07-30T10:44:33;100403.16;;;25.91;65.86
3206;BME280;1615;53.602;11.418;2023-07-30T10:47:00;100380.28;;;25.75;68.45
3206;BME280;1615;53.602;11.418;2023-07-30T10:49:25;100400.75;;;26.00;67.13
3206;BME280;1615;53.602;11.418;2023-07-30T10:51:55;100288.94;;;25.28;68.15
3206;BME280;1615;53.602;11.418;2023-07-30T10:54:22;100391.09;;;25.83;68.17
3206;BME280;1615;53.602;11.418;2023-07-30T10:56:47;100407.59;;;25.78;68.87
3206;BME280;1615;53.602;11.418;2023-07-30T10:59:14;100220.03;;;24.61;68.89
3206;BME280;1615;53.602;11.418;2023-07-30T11:01:41;100352.69;;;25.31;68.21
3206;BME280;1615;53.602;11.418;2023-07-30T11:04:12;100385.97;;;25.47;70.84
3206;BME280;1615;53.602;11.418;2023-07-30T11:06:38;100349.06;;;25.24;69.02
3206;BME280;1615;53.602;11.418;2023-07-30T11:09:04;100410.81;;;25.73;68.98
3206;BME280;1615;53.602;11.418;2023-07-30T11:11:30;100386.75;;;25.51;68.47
3206;BME280;1615;53.602;11.418;2023-07-30T11:13:56;100288.53;;;24.95;68.59
3206;BME280;1615;53.602;11.418;2023-07-30T11:16:22;100407.22;;;25.62;70.85
3206;BME280;1615;53.602;11.418;2023-07-30T11:18:47;100394.75;;;25.63;72.65
3206;BME280;1615;53.602;11.418;2023-07-30T11:21:15;100406.00;;;25.77;70.87
3206;BME280;1615;53.602;11.418;2023-07-30T11:23:45;100404.38;;;25.69;70.50
3206;BME280;1615;53.602;11.418;2023-07-30T11:26:16;100351.88;;;25.27;69.85
3206;BME280;1615;53.602;11.418;2023-07-30T11:28:42;100389.97;;;25.46;72.65
3206;BME280;1615;53.602;11.418;2023-07-30T11:31:17;100408.41;;;25.47;71.85
3206;BME280;1615;53.602;11.418;2023-07-30T11:33:45;100426.06;;;25.51;70.13
3206;BME280;1615;53.602;11.418;2023-07-30T11:36:16;100395.59;;;25.60;71.54
3206;BME280;1615;53.602;11.418;2023-07-30T11:38:42;100369.13;;;25.40;71.47
3206;BME280;1615;53.602;11.418;2023-07-30T11:41:08;100349.06;;;25.38;72.57
3206;BME280;1615;53.602;11.418;2023-07-30T11:43:39;100397.94;;;25.79;67.83
3206;BME280;1615;53.602;11.418;2023-07-30T11:46:15;100286.53;;;24.95;67.20
3206;BME280;1615;53.602;11.418;2023-07-30T11:48:42;100385.50;;;25.90;67.96
3206;BME280;1615;53.602;11.418;2023-07-30T11:53:51;100389.84;;;26.19;66.91
3206;BME280;1615;53.602;11.418;2023-07-30T11:56:18;100394.63;;;26.26;64.25
3206;BME280;1615;53.602;11.418;2023-07-30T11:58:45;100382.16;;;26.27;64.43
3206;BME280;1615;53.602;11.418;2023-07-30T12:01:11;100386.25;;;26.12;63.94
3206;BME280;1615;53.602;11.418;2023-07-30T12:03:37;100381.84;;;26.07;64.79
3206;BME280;1615;53.602;11.418;2023-07-30T12:06:05;100306.56;;;25.39;64.45
3206;BME280;1615;53.602;11.418;2023-07-30T12:08:34;100277.69;;;25.39;65.09
3206;BME280;1615;53.602;11.418;2023-07-30T12:11:03;100382.69;;;25.94;65.25
3206;BME280;1615;53.602;11.418;2023-07-30T12:13:28;100362.28;;;25.62;68.32
3206;BME280;1615;53.602;11.418;2023-07-30T12:15:54;100376.34;;;25.55;69.81
3206;BME280;1615;53.602;11.418;2023-07-30T12:18:21;100381.94;;;25.20;70.99
3206;BME280;1615;53.602;11.418;2023-07-30T12:20:47;100391.16;;;25.38;71.85
3206;BME280;1615;53.602;11.418;2023-07-30T12:23:13;100345.03;;;25.11;72.56
3206;BME280;1615;53.602;11.418;2023-07-30T12:25:38;100386.75;;;25.68;72.12
3206;BME280;1615;53.602;11.418;2023-07-30T12:28:04;100286.50;;;25.23;70.83
3206;BME280;1615;53.602;11.418;2023-07-30T12:30:30;100355.41;;;25.84;69.02
3206;BME280;1615;53.602;11.418;2023-07-30T12:32:56;100355.41;;;25.91;69.60
3206;BME280;1615;53.602;11.418;2023-07-30T12:35:22;100288.09;;;25.45;68.56
3206;BME280;1615;53.602;11.418;2023-07-30T12:37:47;100355.44;;;25.77;69.90
3206;BME280;1615;53.602;11.418;2023-07-30T12:40:13;100376.75;;;25.36;65.30
3206;BME280;1615;53.602;11.418;2023-07-30T12:42:38;100381.56;;;25.42;64.27
3206;BME280;1615;53.602;11.418;2023-07-30T12:45:03;100384.34;;;25.60;64.99
3206;BME280;1615;53.602;11.418;2023-07-30T12:47:29;100385.56;;;25.66;65.96
3206;BME280;1615;53.602;11.418;2023-07-30T12:49:54;100390.78;;;25.50;65.04